sensor_id;sensor_type;location;lat;lon;timestamp;temperature;humidity
25554;DHT22;13446;50.926;5.332;2023-01-26T00:01:21;1.20;99.90
25554;DHT22;13446;50.926;5.332;2023-01-26T00:03:47;1.30;99.90
25554;DHT22;13446;50.926;5.332;2023-01-26T00:06:14;1.50;99.90
25554;DHT22;13446;50.926;5.332;2023-01-26T00:08:40;1.30;99.90
25554;DHT22;13446;50.926;5.332;2023-01-26T00:11:07;1.50;99.90
25554;DHT22;13446;50.926;5.332;2023-01-26T00:13:32;1.50;99.90
25554;DHT22;13446;50.926;5.332;2023-01-26T00:15:58;1.40;99.90
25554;DHT22;13446;50.926;5.332;2023-01-26T00:18:24;1.50;99.90
25554;DHT22;13446;50.926;5.332;2023-01-26T00:20:56;1.50;99.90
25554;DHT22;13446;50.926;5.332;2023-01-26T00:23:22;1.50;99.90
25554;DHT22;13446;50.926;5.332;2023-01-26T00:25:48;1.60;99.90
25554;DHT22;13446;50.926;5.332;2023-01-26T00:28:13;1.50;99.90
25554;DHT22;13446;50.926;5.332;2023-01-26T00:30:39;1.50;99.90
25554;DHT22;13446;50.926;5.332;2023-01-26T00:33:05;1.60;99.90
25554;DHT22;13446;50.926;5.332;2023-01-26T00:35:30;1.60;99.90
25554;DHT22;13446;50.926;5.332;2023-01-26T00:37:56;1.50;99.90
25554;DHT22;13446;50.926;5.332;2023-01-26T00:40:21;1.40;99.90
25554;DHT22;13446;50.926;5.332;2023-01-26T00:42:47;1.50;99.90
25554;DHT22;13446;50.926;5.332;2023-01-26T00:45:12;1.50;99.90
25554;DHT22;13446;50.926;5.332;2023-01-26T00:47:38;1.50;99.90
25554;DHT22;13446;50.926;5.332;2023-01-26T00:50:04;1.50;99.90
25554;DHT22;13446;50.926;5.332;2023-01-26T00:52:30;1.40;99.90
25554;DHT22;13446;50.926;5.332;2023-01-26T00:54:56;1.50;99.90
25554;DHT22;13446;50.926;5.332;2023-01-26T00:57:21;1.50;99.90
25554;DHT22;13446;50.926;5.332;2023-01-26T00:59:47;1.40;99.90
25554;DHT22;13446;50.926;5.332;2023-01-26T01:02:13;1.30;99.90
25554;DHT22;13446;50.926;5.332;2023-01-26T01:04:38;1.20;99.90
25554;DHT22;13446;50.926;5.332;2023-01-26T01:07:04;1.30;99.90
25554;DHT22;13446;50.926;5.332;2023-01-26T01:09:29;1.30;99.90
25554;DHT22;13446;50.926;5.332;2023-01-26T01:11:55;1.40;99.90
25554;DHT22;13446;50.926;5.332;2023-01-26T01:14:21;1.30;99.90
25554;DHT22;13446;50.926;5.332;2023-01-26T01:16:46;1.30;99.90
25554;DHT22;13446;50.926;5.332;2023-01-26T01:19:13;1.30;99.90
25554;DHT22;13446;50.926;5.332;2023-01-26T01:21:39;1.30;99.90
25554;DHT22;13446;50.926;5.332;2023-01-26T01:24:04;1.20;99.90
25554;DHT22;13446;50.926;5.332;2023-01-26T01:26:30;1.40;99.90
25554;DHT22;13446;50.926;5.332;2023-01-26T01:28:56;1.60;99.90
25554;DHT22;13446;50.926;5.332;2023-01-26T01:31:22;1.40;99.90
25554;DHT22;13446;50.926;5.332;2023-01-26T01:33:47;1.40;99.90
25554;DHT22;13446;50.926;5.332;2023-01-26T01:36:13;1.30;99.90
25554;DHT22;13446;50.926;5.332;2023-01-26T01:38:40;1.30;99.90
25554;DHT22;13446;50.926;5.332;2023-01-26T01:41:06;1.40;99.90
25554;DHT22;13446;50.926;5.332;2023-01-26T01:43:31;1.50;99.90
25554;DHT22;13446;50.926;5.332;2023-01-26T01:45:58;1.40;99.90
25554;DHT22;13446;50.926;5.332;2023-01-26T01:50:54;1.30;99.90
25554;DHT22;13446;50.926;5.332;2023-01-26T01:53:21;1.40;99.90
25554;DHT22;13446;50.926;5.332;2023-01-26T01:55:56;1.40;99.90
25554;DHT22;13446;50.926;5.332;2023-01-26T01:58:22;1.30;99.90
25554;DHT22;13446;50.926;5.332;2023-01-26T02:00:48;1.40;99.90
25554;DHT22;13446;50.926;5.332;2023-01-26T02:03:14;1.40;99.90
25554;DHT22;13446;50.926;5.332;2023-01-26T02:08:06;1.30;99.90
25554;DHT22;13446;50.926;5.332;2023-01-26T02:10:33;1.30;99.90
25554;DHT22;13446;50.926;5.332;2023-01-26T02:13:00;1.30;99.90
25554;DHT22;13446;50.926;5.332;2023-01-26T02:15:26;1.40;99.90
25554;DHT22;13446;50.926;5.332;2023-01-26T02:17:52;1.40;99.90
25554;DHT22;13446;50.926;5.332;2023-01-26T02:22:53;1.50;99.90
25554;DHT22;13446;50.926;5.332;2023-01-26T02:27:45;1.60;99.90
25554;DHT22;13446;50.926;5.332;2023-01-26T02:30:11;1.70;99.90
25554;DHT22;13446;50.926;5.332;2023-01-26T02:32:38;1.70;99.90
25554;DHT22;13446;50.926;5.332;2023-01-26T02:35:03;1.60;99.90
25554;DHT22;13446;50.926;5.332;2023-01-26T02:37:29;1.50;99.90
25554;DHT22;13446;50.926;5.332;2023-01-26T02:39:58;1.40;99.90
25554;DHT22;13446;50.926;5.332;2023-01-26T02:42:26;1.40;99.90
25554;DHT22;13446;50.926;5.332;2023-01-26T02:45:05;1.30;99.90
25554;DHT22;13446;50.926;5.332;2023-01-26T02:47:31;1.30;99.90
25554;DHT22;13446;50.926;5.332;2023-01-26T02:49:56;1.50;99.90
25554;DHT22;13446;50.926;5.332;2023-01-26T02:52:26;1.40;99.90
25554;DHT22;13446;50.926;5.332;2023-01-26T02:54:52;1.60;99.90
25554;DHT22;13446;50.926;5.332;2023-01-26T02:57:36;1.50;99.90
25554;DHT22;13446;50.926;5.332;2023-01-26T03:00:04;1.40;99.90
25554;DHT22;13446;50.926;5.332;2023-01-26T03:02:30;1.30;99.90
25554;DHT22;13446;50.926;5.332;2023-01-26T03:04:56;1.40;99.90
25554;DHT22;13446;50.926;5.332;2023-01-26T03:07:21;1.50;99.90
25554;DHT22;13446;50.926;5.332;2023-01-26T03:09:47;1.40;99.90
25554;DHT22;13446;50.926;5.332;2023-01-26T03:12:12;1.50;99.90
25554;DHT22;13446;50.926;5.332;2023-01-26T03:14:38;1.50;99.90
25554;DHT22;13446;50.926;5.332;2023-01-26T03:17:03;1.50;99.90
25554;DHT22;13446;50.926;5.332;2023-01-26T03:19:29;1.50;99.90
25554;DHT22;13446;50.926;5.332;2023-01-26T03:22:13;1.60;99.90
25554;DHT22;13446;50.926;5.332;2023-01-26T03:24:57;1.80;99.90
25554;DHT22;13446;50.926;5.332;2023-01-26T03:27:43;1.80;99.90
25554;DHT22;13446;50.926;5.332;2023-01-26T03:30:09;1.80;99.90
25554;DHT22;13446;50.926;5.332;2023-01-26T03:32:35;2.20;99.90
25554;DHT22;13446;50.926;5.332;2023-01-26T03:35:00;1.90;99.90
25554;DHT22;13446;50.926;5.332;2023-01-26T03:37:26;1.80;99.90
25554;DHT22;13446;50.926;5.332;2023-01-26T03:39:51;1.80;99.90
25554;DHT22;13446;50.926;5.332;2023-01-26T03:42:55;1.90;99.90
25554;DHT22;13446;50.926;5.332;2023-01-26T03:45:40;1.90;99.90
25554;DHT22;13446;50.926;5.332;2023-01-26T03:48:24;1.80;99.90
25554;DHT22;13446;50.926;5.332;2023-01-26T03:51:08;1.90;99.90
25554;DHT22;13446;50.926;5.332;2023-01-26T03:53:52;2.00;99.90
25554;DHT22;13446;50.926;5.332;2023-01-26T03:56:36;2.00;99.90
25554;DHT22;13446;50.926;5.332;2023-01-26T03:59:02;1.90;99.90
25554;DHT22;13446;50.926;5.332;2023-01-26T04:01:38;1.90;99.90
25554;DHT22;13446;50.926;5.332;2023-01-26T04:04:05;1.90;99.90
25554;DHT22;13446;50.926;5.332;2023-01-26T04:06:50;1.90;99.90
25554;DHT22;13446;50.926;5.332;2023-01-26T04:09:34;2.00;99.90
25554;DHT22;13446;50.926;5.332;2023-01-26T04:12:02;2.00;99.90
25554;DHT22;13446;50.926;5.332;2023-01-26T04:14:28;2.00;99.90
25554;DHT22;13446;50.926;5.332;2023-01-26T04:17:12;2.00;99.90
25554;DHT22;13446;50.926;5.332;2023-01-26T04:19:56;2.00;99.90
25554;DHT22;13446;50.926;5.332;2023-01-26T04:22:41;2.10;99.90
25554;DHT22;13446;50.926;5.332;2023-01-26T04:25:14;2.10;99.90
25554;DHT22;13446;50.926;5.332;2023-01-26T04:27:40;2.10;99.90
25554;DHT22;13446;50.926;5.332;2023-01-26T04:30:07;2.10;99.90
25554;DHT22;13446;50.926;5.332;2023-01-26T04:32:33;2.20;99.90
25554;DHT22;13446;50.926;5.332;2023-01-26T04:34:58;2.20;99.90
25554;DHT22;13446;50.926;5.332;2023-01-26T04:37:24;2.20;99.90
25554;DHT22;13446;50.926;5.332;2023-01-26T04:39:49;2.10;99.90
25554;DHT22;13446;50.926;5.332;2023-01-26T04:42:15;2.10;99.90
25554;DHT22;13446;50.926;5.332;2023-01-26T04:44:41;2.20;99.90
25554;DHT22;13446;50.926;5.332;2023-01-26T04:47:06;2.20;99.90
25554;DHT22;13446;50.926;5.332;2023-01-26T04:49:32;2.10;99.90
25554;DHT22;13446;50.926;5.332;2023-01-26T04:51:57;2.10;99.90
25554;DHT22;13446;50.926;5.332;2023-01-26T04:54:23;2.10;99.90
25554;DHT22;13446;50.926;5.332;2023-01-26T04:56:48;1.90;99.90
25554;DHT22;13446;50.926;5.332;2023-01-26T04:59:15;2.00;99.90
25554;DHT22;13446;50.926;5.332;2023-01-26T05:01:41;2.00;99.90
25554;DHT22;13446;50.926;5.332;2023-01-26T05:04:07;2.10;99.90
25554;DHT22;13446;50.926;5.332;2023-01-26T05:06:33;2.10;99.90
25554;DHT22;13446;50.926;5.332;2023-01-26T05:08:58;2.00;99.90
25554;DHT22;13446;50.926;5.332;2023-01-26T05:11:24;2.30;99.90
25554;DHT22;13446;50.926;5.332;2023-01-26T05:13:49;2.20;99.90
25554;DHT22;13446;50.926;5.332;2023-01-26T05:16:15;2.30;99.90
25554;DHT22;13446;50.926;5.332;2023-01-26T05:18:41;2.40;99.90
25554;DHT22;13446;50.926;5.332;2023-01-26T05:21:08;2.40;99.90
25554;DHT22;13446;50.926;5.332;2023-01-26T05:23:33;2.30;99.90
25554;DHT22;13446;50.926;5.332;2023-01-26T05:25:59;2.20;99.90
25554;DHT22;13446;50.926;5.332;2023-01-26T05:28:24;2.30;99.90
25554;DHT22;13446;50.926;5.332;2023-01-26T05:30:50;2.40;99.90
25554;DHT22;13446;50.926;5.332;2023-01-26T05:33:16;2.30;99.90
25554;DHT22;13446;50.926;5.332;2023-01-26T05:35:49;2.40;99.90
25554;DHT22;13446;50.926;5.332;2023-01-26T05:38:14;2.30;99.90
25554;DHT22;13446;50.926;5.332;2023-01-26T05:40:40;2.20;99.90
25554;DHT22;13446;50.926;5.332;2023-01-26T05:43:06;2.30;99.90
25554;DHT22;13446;50.926;5.332;2023-01-26T05:45:33;2.30;99.90
25554;DHT22;13446;50.926;5.332;2023-01-26T05:47:58;2.40;99.90
25554;DHT22;13446;50.926;5.332;2023-01-26T05:50:24;2.50;99.90
25554;DHT22;13446;50.926;5.332;2023-01-26T05:52:50;2.30;99.90
25554;DHT22;13446;50.926;5.332;2023-01-26T05:55:15;2.30;99.90
25554;DHT22;13446;50.926;5.332;2023-01-26T05:57:41;2.30;99.90
25554;DHT22;13446;50.926;5.332;2023-01-26T06:00:07;2.30;99.90
25554;DHT22;13446;50.926;5.332;2023-01-26T06:02:33;2.30;99.90
25554;DHT22;13446;50.926;5.332;2023-01-26T06:04:58;2.30;99.90
25554;DHT22;13446;50.926;5.332;2023-01-26T06:07:24;2.30;99.90
25554;DHT22;13446;50.926;5.332;2023-01-26T06:09:51;2.30;99.90
25554;DHT22;13446;50.926;5.332;2023-01-26T06:12:17;2.40;99.90
25554;DHT22;13446;50.926;5.332;2023-01-26T06:14:43;2.30;99.90
25554;DHT22;13446;50.926;5.332;2023-01-26T06:17:09;2.30;99.90
25554;DHT22;13446;50.926;5.332;2023-01-26T06:19:35;2.30;99.90
25554;DHT22;13446;50.926;5.332;2023-01-26T06:22:02;2.40;99.90
25554;DHT22;13446;50.926;5.332;2023-01-26T06:24:28;2.40;99.90
25554;DHT22;13446;50.926;5.332;2023-01-26T06:26:53;2.40;99.90
25554;DHT22;13446;50.926;5.332;2023-01-26T06:29:19;2.20;99.90
25554;DHT22;13446;50.926;5.332;2023-01-26T06:31:44;2.30;99.90
25554;DHT22;13446;50.926;5.332;2023-01-26T06:34:10;2.20;99.90
25554;DHT22;13446;50.926;5.332;2023-01-26T06:36:36;2.20;99.90
25554;DHT22;13446;50.926;5.332;2023-01-26T06:39:01;2.20;99.90
25554;DHT22;13446;50.926;5.332;2023-01-26T06:41:27;2.30;99.90
25554;DHT22;13446;50.926;5.332;2023-01-26T06:43:53;2.30;99.90
25554;DHT22;13446;50.926;5.332;2023-01-26T06:46:18;2.30;99.90
25554;DHT22;13446;50.926;5.332;2023-01-26T06:48:44;2.40;99.90
25554;DHT22;13446;50.926;5.332;2023-01-26T06:53:48;2.40;99.90
25554;DHT22;13446;50.926;5.332;2023-01-26T06:56:16;2.50;99.90
25554;DHT22;13446;50.926;5.332;2023-01-26T06:58:41;2.50;99.90
25554;DHT22;13446;50.926;5.332;2023-01-26T07:01:17;2.60;99.90
25554;DHT22;13446;50.926;5.332;2023-01-26T07:03:43;2.70;99.90
25554;DHT22;13446;50.926;5.332;2023-01-26T07:06:08;2.60;99.90
25554;DHT22;13446;50.926;5.332;2023-01-26T07:08:37;2.50;99.90
25554;DHT22;13446;50.926;5.332;2023-01-26T07:11:03;2.30;99.90
25554;DHT22;13446;50.926;5.332;2023-01-26T07:13:28;2.30;99.90
25554;DHT22;13446;50.926;5.332;2023-01-26T07:16:01;2.20;99.90
25554;DHT22;13446;50.926;5.332;2023-01-26T07:18:26;2.30;99.90
25554;DHT22;13446;50.926;5.332;2023-01-26T07:20:52;2.30;99.90
25554;DHT22;13446;50.926;5.332;2023-01-26T07:23:19;2.50;99.90
25554;DHT22;13446;50.926;5.332;2023-01-26T07:25:44;2.40;99.90
25554;DHT22;13446;50.926;5.332;2023-01-26T07:28:10;2.40;99.90
25554;DHT22;13446;50.926;5.332;2023-01-26T07:30:35;2.40;99.90
25554;DHT22;13446;50.926;5.332;2023-01-26T07:33:01;2.60;99.90
25554;DHT22;13446;50.926;5.332;2023-01-26T07:35:27;2.50;99.90
25554;DHT22;13446;50.926;5.332;2023-01-26T07:37:54;2.40;99.90
25554;DHT22;13446;50.926;5.332;2023-01-26T07:40:19;2.40;99.90
25554;DHT22;13446;50.926;5.332;2023-01-26T07:42:45;2.40;99.90
25554;DHT22;13446;50.926;5.332;2023-01-26T07:45:11;2.70;99.90
25554;DHT22;13446;50.926;5.332;2023-01-26T07:47:36;2.60;99.90
25554;DHT22;13446;50.926;5.332;2023-01-26T07:50:02;2.70;99.90
25554;DHT22;13446;50.926;5.332;2023-01-26T07:52:28;2.60;99.90
25554;DHT22;13446;50.926;5.332;2023-01-26T07:54:53;2.70;99.90
25554;DHT22;13446;50.926;5.332;2023-01-26T07:57:19;2.60;99.90
25554;DHT22;13446;50.926;5.332;2023-01-26T07:59:44;2.80;99.90
25554;DHT22;13446;50.926;5.332;2023-01-26T08:02:10;2.70;99.90
25554;DHT22;13446;50.926;5.332;2023-01-26T08:04:36;2.70;99.90
25554;DHT22;13446;50.926;5.332;2023-01-26T08:07:01;2.70;99.90
25554;DHT22;13446;50.926;5.332;2023-01-26T08:09:27;2.60;99.90
25554;DHT22;13446;50.926;5.332;2023-01-26T08:11:55;2.60;99.90
25554;DHT22;13446;50.926;5.332;2023-01-26T08:14:20;2.80;99.90
25554;DHT22;13446;50.926;5.332;2023-01-26T08:16:46;2.80;99.90
25554;DHT22;13446;50.926;5.332;2023-01-26T08:19:12;2.90;99.90
25554;DHT22;13446;50.926;5.332;2023-01-26T08:21:37;3.00;99.90
25554;DHT22;13446;50.926;5.332;2023-01-26T08:24:03;2.90;99.90
25554;DHT22;13446;50.926;5.332;2023-01-26T08:26:28;2.70;99.90
25554;DHT22;13446;50.926;5.332;2023-01-26T08:28:54;2.80;99.90
25554;DHT22;13446;50.926;5.332;2023-01-26T08:31:20;2.90;99.90
25554;DHT22;13446;50.926;5.332;2023-01-26T08:33:46;2.80;99.90
25554;DHT22;13446;50.926;5.332;2023-01-26T08:36:13;2.80;99.90
25554;DHT22;13446;50.926;5.332;2023-01-26T08:38:39;2.60;99.90
25554;DHT22;13446;50.926;5.332;2023-01-26T08:41:04;2.60;99.90
25554;DHT22;13446;50.926;5.332;2023-01-26T08:43:30;2.80;99.90
25554;DHT22;13446;50.926;5.332;2023-01-26T08:45:56;3.00;99.90
25554;DHT22;13446;50.926;5.332;2023-01-26T08:48:22;3.10;99.90
25554;DHT22;13446;50.926;5.332;2023-01-26T08:50:47;3.10;99.90
25554;DHT22;13446;50.926;5.332;2023-01-26T08:53:17;3.10;99.90
25554;DHT22;13446;50.926;5.332;2023-01-26T08:55:43;3.00;99.90
25554;DHT22;13446;50.926;5.332;2023-01-26T08:58:08;2.90;99.90
25554;DHT22;13446;50.926;5.332;2023-01-26T09:00:34;2.90;99.90
25554;DHT22;13446;50.926;5.332;2023-01-26T09:03:00;3.00;99.90
25554;DHT22;13446;50.926;5.332;2023-01-26T09:05:26;2.90;99.90
25554;DHT22;13446;50.926;5.332;2023-01-26T09:07:52;3.00;99.90
25554;DHT22;13446;50.926;5.332;2023-01-26T09:10:18;3.00;99.90
25554;DHT22;13446;50.926;5.332;2023-01-26T09:12:43;3.00;99.90
25554;DHT22;13446;50.926;5.332;2023-01-26T09:15:09;3.10;99.90
25554;DHT22;13446;50.926;5.332;2023-01-26T09:17:35;3.30;99.90
25554;DHT22;13446;50.926;5.332;2023-01-26T09:20:02;3.40;99.90
25554;DHT22;13446;50.926;5.332;2023-01-26T09:22:27;3.30;99.90
25554;DHT22;13446;50.926;5.332;2023-01-26T09:24:53;3.20;99.90
25554;DHT22;13446;50.926;5.332;2023-01-26T09:27:19;3.10;99.90
25554;DHT22;13446;50.926;5.332;2023-01-26T09:29:44;3.10;99.90
25554;DHT22;13446;50.926;5.332;2023-01-26T09:32:10;2.90;99.90
25554;DHT22;13446;50.926;5.332;2023-01-26T09:34:36;3.20;99.90
25554;DHT22;13446;50.926;5.332;2023-01-26T09:37:01;3.40;99.90
25554;DHT22;13446;50.926;5.332;2023-01-26T09:39:27;3.40;99.90
25554;DHT22;13446;50.926;5.332;2023-01-26T09:44:39;4.00;99.90
25554;DHT22;13446;50.926;5.332;2023-01-26T09:47:11;4.10;99.90
25554;DHT22;13446;50.926;5.332;2023-01-26T09:49:50;4.10;99.90
25554;DHT22;13446;50.926;5.332;2023-01-26T09:54:46;3.80;99.90
25554;DHT22;13446;50.926;5.332;2023-01-26T09:57:22;4.00;99.90
25554;DHT22;13446;50.926;5.332;2023-01-26T10:04:49;4.20;99.90
25554;DHT22;13446;50.926;5.332;2023-01-26T10:07:17;4.20;99.90
25554;DHT22;13446;50.926;5.332;2023-01-26T10:09:44;4.30;99.90
25554;DHT22;13446;50.926;5.332;2023-01-26T10:14:47;4.50;99.90
25554;DHT22;13446;50.926;5.332;2023-01-26T10:17:47;4.30;99.90
25554;DHT22;13446;50.926;5.332;2023-01-26T10:23:12;4.50;99.90
25554;DHT22;13446;50.926;5.332;2023-01-26T10:25:37;4.60;99.90
25554;DHT22;13446;50.926;5.332;2023-01-26T10:28:10;4.50;99.90
25554;DHT22;13446;50.926;5.332;2023-01-26T10:30:37;4.20;99.90
25554;DHT22;13446;50.926;5.332;2023-01-26T10:33:04;4.30;99.90
25554;DHT22;13446;50.926;5.332;2023-01-26T10:35:34;4.10;99.90
25554;DHT22;13446;50.926;5.332;2023-01-26T10:37:59;4.50;99.90
25554;DHT22;13446;50.926;5.332;2023-01-26T10:40:25;4.60;99.90
25554;DHT22;13446;50.926;5.332;2023-01-26T10:42:55;4.90;99.90
25554;DHT22;13446;50.926;5.332;2023-01-26T10:45:31;4.80;99.90
25554;DHT22;13446;50.926;5.332;2023-01-26T10:50:41;4.50;99.90
25554;DHT22;13446;50.926;5.332;2023-01-26T10:53:10;4.60;99.90
25554;DHT22;13446;50.926;5.332;2023-01-26T10:55:38;4.80;99.90
25554;DHT22;13446;50.926;5.332;2023-01-26T10:58:04;4.80;99.90
25554;DHT22;13446;50.926;5.332;2023-01-26T11:00:31;4.80;99.90
25554;DHT22;13446;50.926;5.332;2023-01-26T11:03:04;4.50;99.90
25554;DHT22;13446;50.926;5.332;2023-01-26T11:05:33;4.50;99.90
25554;DHT22;13446;50.926;5.332;2023-01-26T11:07:58;4.50;99.90
25554;DHT22;13446;50.926;5.332;2023-01-26T11:10:38;4.60;99.90
25554;DHT22;13446;50.926;5.332;2023-01-26T11:13:14;4.70;99.90
25554;DHT22;13446;50.926;5.332;2023-01-26T11:15:43;4.60;99.90
25554;DHT22;13446;50.926;5.332;2023-01-26T11:18:15;4.40;99.90
25554;DHT22;13446;50.926;5.332;2023-01-26T11:20:49;4.50;99.90
25554;DHT22;13446;50.926;5.332;2023-01-26T11:31:22;4.60;99.90
25554;DHT22;13446;50.926;5.332;2023-01-26T11:41:33;4.80;99.90
25554;DHT22;13446;50.926;5.332;2023-01-26T11:59:47;5.10;99.90
25554;DHT22;13446;50.926;5.332;2023-01-26T12:02:25;5.10;99.90
25554;DHT22;13446;50.926;5.332;2023-01-26T12:04:51;4.90;99.90
25554;DHT22;13446;50.926;5.332;2023-01-26T12:07:27;4.60;99.90
25554;DHT22;13446;50.926;5.332;2023-01-26T12:09:54;4.50;99.90
25554;DHT22;13446;50.926;5.332;2023-01-26T12:12:29;4.50;99.90
25554;DHT22;13446;50.926;5.332;2023-01-26T12:22:45;4.80;99.90
25554;DHT22;13446;50.926;5.332;2023-01-26T12:27:52;4.90;99.90
25554;DHT22;13446;50.926;5.332;2023-01-26T12:32:50;4.60;99.90
25554;DHT22;13446;50.926;5.332;2023-01-26T12:35:17;4.50;99.90
25554;DHT22;13446;50.926;5.332;2023-01-26T12:37:55;4.50;99.90
25554;DHT22;13446;50.926;5.332;2023-01-26T12:45:20;5.00;99.90
25554;DHT22;13446;50.926;5.332;2023-01-26T12:47:51;5.00;99.90
25554;DHT22;13446;50.926;5.332;2023-01-26T12:50:23;5.20;99.90
25554;DHT22;13446;50.926;5.332;2023-01-26T12:58:31;5.20;99.90
25554;DHT22;13446;50.926;5.332;2023-01-26T13:00:59;5.30;99.90
25554;DHT22;13446;50.926;5.332;2023-01-26T13:08:48;5.20;99.90
25554;DHT22;13446;50.926;5.332;2023-01-26T13:14:17;5.40;99.90
25554;DHT22;13446;50.926;5.332;2023-01-26T13:16:47;5.10;99.90
25554;DHT22;13446;50.926;5.332;2023-01-26T13:19:32;5.20;99.90
25554;DHT22;13446;50.926;5.332;2023-01-26T13:21:58;5.20;99.90
25554;DHT22;13446;50.926;5.332;2023-01-26T13:26:55;5.30;99.90
25554;DHT22;13446;50.926;5.332;2023-01-26T13:31:49;5.40;99.90
25554;DHT22;13446;50.926;5.332;2023-01-26T13:34:15;5.20;99.90
25554;DHT22;13446;50.926;5.332;2023-01-26T13:36:43;5.10;99.90
25554;DHT22;13446;50.926;5.332;2023-01-26T13:39:14;5.20;99.90
25554;DHT22;13446;50.926;5.332;2023-01-26T13:41:44;5.40;99.90
25554;DHT22;13446;50.926;5.332;2023-01-26T13:44:18;5.30;99.90
25554;DHT22;13446;50.926;5.332;2023-01-26T13:46:53;5.40;99.90
25554;DHT22;13446;50.926;5.332;2023-01-26T13:49:39;5.60;99.90
25554;DHT22;13446;50.926;5.332;2023-01-26T13:52:15;5.70;99.90
25554;DHT22;13446;50.926;5.332;2023-01-26T13:54:42;5.80;99.90
25554;DHT22;13446;50.926;5.332;2023-01-26T13:57:11;6.00;99.90
25554;DHT22;13446;50.926;5.332;2023-01-26T13:59:50;5.90;99.90
25554;DHT22;13446;50.926;5.332;2023-01-26T14:02:20;6.00;99.90
25554;DHT22;13446;50.926;5.332;2023-01-26T14:04:50;6.10;99.90
25554;DHT22;13446;50.926;5.332;2023-01-26T14:07:16;6.00;99.90
25554;DHT22;13446;50.926;5.332;2023-01-26T14:09:44;6.00;99.90
25554;DHT22;13446;50.926;5.332;2023-01-26T14:12:21;6.10;99.90
25554;DHT22;13446;50.926;5.332;2023-01-26T14:14:49;6.20;99.90
25554;DHT22;13446;50.926;5.332;2023-01-26T14:17:32;6.30;99.90
25554;DHT22;13446;50.926;5.332;2023-01-26T14:19:59;6.30;99.90
25554;DHT22;13446;50.926;5.332;2023-01-26T14:22:25;6.30;99.90
25554;DHT22;13446;50.926;5.332;2023-01-26T14:24:52;6.30;99.90
25554;DHT22;13446;50.926;5.332;2023-01-26T14:29:49;6.40;99.90
25554;DHT22;13446;50.926;5.332;2023-01-26T14:32:15;6.50;99.90
25554;DHT22;13446;50.926;5.332;2023-01-26T14:34:50;6.50;99.90
25554;DHT22;13446;50.926;5.332;2023-01-26T14:37:16;6.50;99.90
25554;DHT22;13446;50.926;5.332;2023-01-26T14:39:42;6.70;99.90
25554;DHT22;13446;50.926;5.332;2023-01-26T14:42:13;6.80;99.90
25554;DHT22;13446;50.926;5.332;2023-01-26T14:44:39;6.80;99.90
25554;DHT22;13446;50.926;5.332;2023-01-26T14:47:19;6.80;99.90
25554;DHT22;13446;50.926;5.332;2023-01-26T14:52:15;6.80;99.90
25554;DHT22;13446;50.926;5.332;2023-01-26T14:54:41;6.70;99.90
25554;DHT22;13446;50.926;5.332;2023-01-26T14:57:08;6.70;99.90
25554;DHT22;13446;50.926;5.332;2023-01-26T14:59:38;6.80;99.90
25554;DHT22;13446;50.926;5.332;2023-01-26T15:02:15;6.70;99.90
25554;DHT22;13446;50.926;5.332;2023-01-26T15:04:42;6.70;99.90
25554;DHT22;13446;50.926;5.332;2023-01-26T15:09:53;6.70;99.90
25554;DHT22;13446;50.926;5.332;2023-01-26T15:12:18;6.40;99.90
25554;DHT22;13446;50.926;5.332;2023-01-26T15:19:51;6.50;99.90
25554;DHT22;13446;50.926;5.332;2023-01-26T15:22:17;6.50;99.90
25554;DHT22;13446;50.926;5.332;2023-01-26T15:24:45;6.60;99.90
25554;DHT22;13446;50.926;5.332;2023-01-26T15:27:11;6.70;99.90
25554;DHT22;13446;50.926;5.332;2023-01-26T15:29:37;6.70;99.90
25554;DHT22;13446;50.926;5.332;2023-01-26T15:32:02;6.60;99.90
25554;DHT22;13446;50.926;5.332;2023-01-26T15:34:29;6.60;99.90
25554;DHT22;13446;50.926;5.332;2023-01-26T15:36:55;6.60;99.90
25554;DHT22;13446;50.926;5.332;2023-01-26T15:39:24;6.60;99.90
25554;DHT22;13446;50.926;5.332;2023-01-26T15:42:23;6.50;99.90
25554;DHT22;13446;50.926;5.332;2023-01-26T15:44:41;6.50;99.90
25554;DHT22;13446;50.926;5.332;2023-01-26T15:47:07;6.40;99.90
25554;DHT22;13446;50.926;5.332;2023-01-26T15:49:33;6.50;99.90
25554;DHT22;13446;50.926;5.332;2023-01-26T15:51:59;6.50;99.90
25554;DHT22;13446;50.926;5.332;2023-01-26T15:54:24;6.40;99.90
25554;DHT22;13446;50.926;5.332;2023-01-26T15:56:50;6.40;99.90
25554;DHT22;13446;50.926;5.332;2023-01-26T15:59:15;6.20;99.90
25554;DHT22;13446;50.926;5.332;2023-01-26T16:01:41;6.10;99.90
25554;DHT22;13446;50.926;5.332;2023-01-26T16:04:10;6.20;99.90
25554;DHT22;13446;50.926;5.332;2023-01-26T16:06:36;6.20;99.90
25554;DHT22;13446;50.926;5.332;2023-01-26T16:09:02;6.20;99.90
25554;DHT22;13446;50.926;5.332;2023-01-26T16:11:28;6.30;99.90
25554;DHT22;13446;50.926;5.332;2023-01-26T16:13:54;6.30;99.90
25554;DHT22;13446;50.926;5.332;2023-01-26T16:16:21;6.10;99.90
25554;DHT22;13446;50.926;5.332;2023-01-26T16:18:52;5.90;99.90
25554;DHT22;13446;50.926;5.332;2023-01-26T16:21:18;5.70;99.90
25554;DHT22;13446;50.926;5.332;2023-01-26T16:23:45;5.70;99.90
25554;DHT22;13446;50.926;5.332;2023-01-26T16:26:11;5.70;99.90
25554;DHT22;13446;50.926;5.332;2023-01-26T16:28:37;5.70;99.90
25554;DHT22;13446;50.926;5.332;2023-01-26T16:31:04;5.80;99.90
25554;DHT22;13446;50.926;5.332;2023-01-26T16:33:35;5.70;99.90
25554;DHT22;13446;50.926;5.332;2023-01-26T16:36:01;5.60;99.90
25554;DHT22;13446;50.926;5.332;2023-01-26T16:38:27;5.50;99.90
25554;DHT22;13446;50.926;5.332;2023-01-26T16:40:52;5.50;99.90
25554;DHT22;13446;50.926;5.332;2023-01-26T16:43:19;5.40;99.90
25554;DHT22;13446;50.926;5.332;2023-01-26T16:45:45;5.50;99.90
25554;DHT22;13446;50.926;5.332;2023-01-26T16:48:11;5.50;99.90
25554;DHT22;13446;50.926;5.332;2023-01-26T16:50:38;5.50;99.90
25554;DHT22;13446;50.926;5.332;2023-01-26T16:53:37;5.60;99.90
25554;DHT22;13446;50.926;5.332;2023-01-26T16:55:57;5.60;99.90
25554;DHT22;13446;50.926;5.332;2023-01-26T16:58:23;5.50;99.90
25554;DHT22;13446;50.926;5.332;2023-01-26T17:00:52;5.40;99.90
25554;DHT22;13446;50.926;5.332;2023-01-26T17:03:18;5.50;99.90
25554;DHT22;13446;50.926;5.332;2023-01-26T17:05:44;5.50;99.90
25554;DHT22;13446;50.926;5.332;2023-01-26T17:08:10;5.60;99.90
25554;DHT22;13446;50.926;5.332;2023-01-26T17:10:35;5.60;99.90
25554;DHT22;13446;50.926;5.332;2023-01-26T17:13:01;5.70;99.90
25554;DHT22;13446;50.926;5.332;2023-01-26T17:15:27;5.70;99.90
25554;DHT22;13446;50.926;5.332;2023-01-26T17:17:53;5.50;99.90
25554;DHT22;13446;50.926;5.332;2023-01-26T17:20:19;5.50;99.90
25554;DHT22;13446;50.926;5.332;2023-01-26T17:22:44;5.50;99.90
25554;DHT22;13446;50.926;5.332;2023-01-26T17:25:10;5.60;99.90
25554;DHT22;13446;50.926;5.332;2023-01-26T17:27:35;5.60;99.90
25554;DHT22;13446;50.926;5.332;2023-01-26T17:30:02;5.60;99.90
25554;DHT22;13446;50.926;5.332;2023-01-26T17:32:28;5.60;99.90
25554;DHT22;13446;50.926;5.332;2023-01-26T17:34:54;5.60;99.90
25554;DHT22;13446;50.926;5.332;2023-01-26T17:37:20;5.70;99.90
25554;DHT22;13446;50.926;5.332;2023-01-26T17:39:46;5.80;99.90
25554;DHT22;13446;50.926;5.332;2023-01-26T17:42:12;5.90;99.90